Terminal Aerodrome Forecast
Issued by NWS

Home | Current Version | Previous Version | Text Only | Print | Product List | Glossary On
Versions: 1 2 3 4 5 6 7 8 9 10 11 12 13 14 15 16 17 18 19 20 21 22 23 24 25 26
000
FTUS44 KBMX 161100 RRA
TAFMGM
TAF
KMGM 161139Z 1612/1712 00000KT P6SM FEW004 OVC150
      TEMPO 1612/1614 5SM BR
     FM161430 36004KT P6SM SCT035 BKN150
     FM162000 35009KT P6SM VCTS BKN050CB
      TEMPO 1621/1624 6SM TSRA BR OVC050CB
     FM170000 35002KT P6SM BKN250=

USA.gov is the U.S. government's official web portal to all federal, state and local government web resources and services.